This is the latest recevied weather packets stored in our database for station/object IZ8NVY-10. If no packets are shown the sender has not sent any weather packets the latest 10 day(s).
| Time | Temp. | Humidity | Pressure | Rain* | Wind** | Luminosity | Snow |
|---|---|---|---|---|---|---|---|
| 1777565576 | 20.56° C | 37% | 981.8 hPa | - | - | - | - |
| 1777561977 | 27.22° C | 32% | 981.7 hPa | - | - | - | - |
| 1777558377 | 25° C | 35% | 981.4 hPa | - | - | - | - |
| 1777554775 | 27.22° C | 38% | 981.4 hPa | - | - | - | - |
| 1777551174 | 26.11° C | 46% | 981.6 hPa | - | - | - | - |
| 1777547573 | 22.22° C | 55% | 981.9 hPa | - | - | - | - |
| 1777543973 | 20.56° C | 57% | 981.9 hPa | - | - | - | - |
| 1777540376 | 20° C | 60% | 981.9 hPa | - | - | - | - |
| 1777536774 | 17.78° C | 66% | 981.7 hPa | - | - | - | - |
| 1777533173 | 17.22° C | 65% | 980.8 hPa | - | - | - | - |
| 1777529572 | 16.67° C | 63% | 980.6 hPa | - | - | - | - |
| 1777525973 | 17.78° C | 53% | 980.3 hPa | - | - | - | - |
| 1777522373 | 18.33° C | 49% | 979.6 hPa | - | - | - | - |
| 1777518773 | 18.89° C | 47% | 980.1 hPa | - | - | - | - |
| 1777515173 | 18.89° C | 45% | 980 hPa | - | - | - | - |
| 1777511572 | 19.44° C | 45% | 979.2 hPa | - | - | - | - |
| 1777507971 | 18.89° C | 46% | 979.3 hPa | - | - | - | - |
| 1777504370 | 18.33° C | 45% | 979.7 hPa | - | - | - | - |
| 1777500770 | 17.78° C | 45% | 979.7 hPa | - | - | - | - |
| 1777497172 | 18.33° C | 44% | 979.5 hPa | - | - | - | - |
| 1777493570 | 18.33° C | 42% | 980 hPa | - | - | - | - |
| 1777489971 | 19.44° C | 39% | 979.4 hPa | - | - | - | - |
| 1777486369 | 21.67° C | 34% | 978.5 hPa | - | - | - | - |
| 1777482768 | 25.56° C | 29% | 978.1 hPa | - | - | - | - |
| 1777479172 | 30° C | 22% | 977.8 hPa | - | - | - | - |
* Rain since midnight (hover to see other rain measurements)
** Current wind speed in m/s (hover to see current wind gust speed)